sensor_id;sensor_type;location;lat;lon;timestamp;temperature;humidity
29431;DHT22;16404;49.902;10.074;2024-03-23T00:54:56;12.50;47.30
29431;DHT22;16404;49.902;10.074;2024-03-23T00:57:40;12.40;47.30
29431;DHT22;16404;49.902;10.074;2024-03-23T01:00:24;12.40;47.40
29431;DHT22;16404;49.902;10.074;2024-03-23T01:03:08;12.30;47.30
29431;DHT22;16404;49.902;10.074;2024-03-23T01:05:53;12.30;47.40
29431;DHT22;16404;49.902;10.074;2024-03-23T01:08:38;12.20;47.50
29431;DHT22;16404;49.902;10.074;2024-03-23T01:11:22;12.10;47.50
29431;DHT22;16404;49.902;10.074;2024-03-23T01:14:06;12.10;47.50
29431;DHT22;16404;49.902;10.074;2024-03-23T01:16:50;12.00;47.50
29431;DHT22;16404;49.902;10.074;2024-03-23T01:19:35;12.00;47.50
29431;DHT22;16404;49.902;10.074;2024-03-23T01:22:19;12.00;47.60
29431;DHT22;16404;49.902;10.074;2024-03-23T01:25:03;11.90;47.50
29431;DHT22;16404;49.902;10.074;2024-03-23T01:27:48;11.90;47.50
29431;DHT22;16404;49.902;10.074;2024-03-23T01:30:32;11.90;47.50
29431;DHT22;16404;49.902;10.074;2024-03-23T01:33:17;11.90;47.50
29431;DHT22;16404;49.902;10.074;2024-03-23T01:36:01;11.80;47.50
29431;DHT22;16404;49.902;10.074;2024-03-23T01:38:45;11.80;47.50
29431;DHT22;16404;49.902;10.074;2024-03-23T01:41:29;11.80;47.50
29431;DHT22;16404;49.902;10.074;2024-03-23T01:44:14;11.70;47.50
29431;DHT22;16404;49.902;10.074;2024-03-23T01:46:59;11.70;47.60
29431;DHT22;16404;49.902;10.074;2024-03-23T01:49:43;11.70;47.70
29431;DHT22;16404;49.902;10.074;2024-03-23T01:52:28;11.60;47.70
29431;DHT22;16404;49.902;10.074;2024-03-23T01:55:12;11.60;47.70
29431;DHT22;16404;49.902;10.074;2024-03-23T01:57:56;11.60;47.70
29431;DHT22;16404;49.902;10.074;2024-03-23T02:00:41;11.60;47.70
29431;DHT22;16404;49.902;10.074;2024-03-23T02:03:26;11.60;47.70
29431;DHT22;16404;49.902;10.074;2024-03-23T02:06:11;11.50;47.70
29431;DHT22;16404;49.902;10.074;2024-03-23T02:08:55;11.50;47.70
29431;DHT22;16404;49.902;10.074;2024-03-23T02:11:39;11.60;47.80
29431;DHT22;16404;49.902;10.074;2024-03-23T02:14:23;11.50;47.70
29431;DHT22;16404;49.902;10.074;2024-03-23T02:17:08;11.60;47.70
29431;DHT22;16404;49.902;10.074;2024-03-23T02:19:53;11.60;47.60
29431;DHT22;16404;49.902;10.074;2024-03-23T02:22:37;11.60;47.60
29431;DHT22;16404;49.902;10.074;2024-03-23T02:25:22;11.60;47.60
29431;DHT22;16404;49.902;10.074;2024-03-23T02:28:06;11.60;47.70
29431;DHT22;16404;49.902;10.074;2024-03-23T02:30:50;11.70;47.80
29431;DHT22;16404;49.902;10.074;2024-03-23T02:33:34;11.70;47.80
29431;DHT22;16404;49.902;10.074;2024-03-23T02:36:22;11.70;47.80
29431;DHT22;16404;49.902;10.074;2024-03-23T02:39:06;11.80;47.80
29431;DHT22;16404;49.902;10.074;2024-03-23T02:41:50;11.80;47.70
29431;DHT22;16404;49.902;10.074;2024-03-23T02:44:34;11.90;47.80
29431;DHT22;16404;49.902;10.074;2024-03-23T02:47:19;11.90;47.80
29431;DHT22;16404;49.902;10.074;2024-03-23T02:50:03;11.90;47.70
29431;DHT22;16404;49.902;10.074;2024-03-23T02:52:48;12.00;47.80
29431;DHT22;16404;49.902;10.074;2024-03-23T02:55:32;12.00;47.80
29431;DHT22;16404;49.902;10.074;2024-03-23T02:58:17;12.00;47.70
29431;DHT22;16404;49.902;10.074;2024-03-23T03:01:01;12.10;47.80
29431;DHT22;16404;49.902;10.074;2024-03-23T03:03:45;12.10;47.80
29431;DHT22;16404;49.902;10.074;2024-03-23T03:06:30;12.10;47.90
29431;DHT22;16404;49.902;10.074;2024-03-23T03:09:14;12.20;47.90
29431;DHT22;16404;49.902;10.074;2024-03-23T03:11:59;12.30;47.80
29431;DHT22;16404;49.902;10.074;2024-03-23T03:14:43;12.30;47.80
29431;DHT22;16404;49.902;10.074;2024-03-23T03:17:27;12.40;47.80
29431;DHT22;16404;49.902;10.074;2024-03-23T03:20:12;12.40;47.80
29431;DHT22;16404;49.902;10.074;2024-03-23T03:22:57;12.40;47.80
29431;DHT22;16404;49.902;10.074;2024-03-23T03:25:41;12.50;47.90
29431;DHT22;16404;49.902;10.074;2024-03-23T03:28:26;12.60;47.90
29431;DHT22;16404;49.902;10.074;2024-03-23T03:31:14;12.50;47.90
29431;DHT22;16404;49.902;10.074;2024-03-23T03:33:59;12.60;47.90
29431;DHT22;16404;49.902;10.074;2024-03-23T03:36:43;12.60;47.90
29431;DHT22;16404;49.902;10.074;2024-03-23T03:39:28;12.70;48.00
29431;DHT22;16404;49.902;10.074;2024-03-23T03:42:12;12.70;48.00
29431;DHT22;16404;49.902;10.074;2024-03-23T03:44:56;12.80;48.00
29431;DHT22;16404;49.902;10.074;2024-03-23T03:47:40;12.80;48.00
29431;DHT22;16404;49.902;10.074;2024-03-23T03:50:24;12.80;48.10
29431;DHT22;16404;49.902;10.074;2024-03-23T03:53:09;12.80;48.20
29431;DHT22;16404;49.902;10.074;2024-03-23T03:55:53;12.80;48.40
29431;DHT22;16404;49.902;10.074;2024-03-23T03:58:37;12.70;48.60
29431;DHT22;16404;49.902;10.074;2024-03-23T04:01:21;12.70;49.00
29431;DHT22;16404;49.902;10.074;2024-03-23T04:04:06;12.70;49.20
29431;DHT22;16404;49.902;10.074;2024-03-23T04:06:57;12.70;49.40
29431;DHT22;16404;49.902;10.074;2024-03-23T04:09:42;12.80;49.50
29431;DHT22;16404;49.902;10.074;2024-03-23T04:12:26;12.90;49.80
29431;DHT22;16404;49.902;10.074;2024-03-23T04:15:10;13.00;49.80
29431;DHT22;16404;49.902;10.074;2024-03-23T04:17:55;13.20;49.80
29431;DHT22;16404;49.902;10.074;2024-03-23T04:20:39;13.40;49.80
29431;DHT22;16404;49.902;10.074;2024-03-23T04:23:23;13.50;49.80
29431;DHT22;16404;49.902;10.074;2024-03-23T04:26:07;13.60;49.80
29431;DHT22;16404;49.902;10.074;2024-03-23T04:28:53;13.70;49.80
29431;DHT22;16404;49.902;10.074;2024-03-23T04:31:37;13.70;49.70
29431;DHT22;16404;49.902;10.074;2024-03-23T04:34:21;13.70;49.90
29431;DHT22;16404;49.902;10.074;2024-03-23T04:37:07;13.80;50.10
29431;DHT22;16404;49.902;10.074;2024-03-23T04:39:52;13.80;50.20
29431;DHT22;16404;49.902;10.074;2024-03-23T04:42:37;13.80;50.20
29431;DHT22;16404;49.902;10.074;2024-03-23T04:45:21;13.80;50.30
29431;DHT22;16404;49.902;10.074;2024-03-23T04:48:07;13.80;50.40
29431;DHT22;16404;49.902;10.074;2024-03-23T04:50:54;13.80;50.60
29431;DHT22;16404;49.902;10.074;2024-03-23T04:53:39;13.90;50.70
29431;DHT22;16404;49.902;10.074;2024-03-23T04:56:23;13.80;50.80
29431;DHT22;16404;49.902;10.074;2024-03-23T04:59:08;13.90;50.90
29431;DHT22;16404;49.902;10.074;2024-03-23T05:01:53;13.90;50.90
29431;DHT22;16404;49.902;10.074;2024-03-23T05:04:37;13.90;50.90
29431;DHT22;16404;49.902;10.074;2024-03-23T05:07:21;14.00;51.10
29431;DHT22;16404;49.902;10.074;2024-03-23T05:10:07;13.90;51.10
29431;DHT22;16404;49.902;10.074;2024-03-23T05:12:54;13.90;51.20
29431;DHT22;16404;49.902;10.074;2024-03-23T05:15:39;13.90;51.40
29431;DHT22;16404;49.902;10.074;2024-03-23T05:18:23;13.90;51.50
29431;DHT22;16404;49.902;10.074;2024-03-23T05:21:10;13.90;51.50
29431;DHT22;16404;49.902;10.074;2024-03-23T05:23:55;14.00;51.50
29431;DHT22;16404;49.902;10.074;2024-03-23T05:26:39;14.00;51.60
29431;DHT22;16404;49.902;10.074;2024-03-23T05:29:24;13.90;51.70
29431;DHT22;16404;49.902;10.074;2024-03-23T05:32:08;14.00;51.80
29431;DHT22;16404;49.902;10.074;2024-03-23T05:34:53;14.00;51.90
29431;DHT22;16404;49.902;10.074;2024-03-23T05:37:40;13.90;52.00
29431;DHT22;16404;49.902;10.074;2024-03-23T05:40:25;13.80;52.20
29431;DHT22;16404;49.902;10.074;2024-03-23T05:43:10;13.90;52.40
29431;DHT22;16404;49.902;10.074;2024-03-23T05:45:55;13.80;52.50
29431;DHT22;16404;49.902;10.074;2024-03-23T05:48:39;13.80;52.60
29431;DHT22;16404;49.902;10.074;2024-03-23T05:51:24;13.80;52.70
29431;DHT22;16404;49.902;10.074;2024-03-23T05:54:08;13.80;52.70
29431;DHT22;16404;49.902;10.074;2024-03-23T05:56:54;13.80;52.70
29431;DHT22;16404;49.902;10.074;2024-03-23T05:59:38;13.90;52.80
29431;DHT22;16404;49.902;10.074;2024-03-23T06:02:23;13.90;52.90
29431;DHT22;16404;49.902;10.074;2024-03-23T06:05:08;13.90;53.10
29431;DHT22;16404;49.902;10.074;2024-03-23T06:07:52;13.90;53.20
29431;DHT22;16404;49.902;10.074;2024-03-23T06:10:36;13.80;53.30
29431;DHT22;16404;49.902;10.074;2024-03-23T06:13:20;13.80;53.70
29431;DHT22;16404;49.902;10.074;2024-03-23T06:16:08;13.80;54.10
29431;DHT22;16404;49.902;10.074;2024-03-23T06:18:53;13.80;54.30
29431;DHT22;16404;49.902;10.074;2024-03-23T06:21:42;13.80;54.50
29431;DHT22;16404;49.902;10.074;2024-03-23T06:24:27;13.70;54.90
29431;DHT22;16404;49.902;10.074;2024-03-23T06:27:11;13.70;55.50
29431;DHT22;16404;49.902;10.074;2024-03-23T06:29:56;13.70;55.70
29431;DHT22;16404;49.902;10.074;2024-03-23T06:32:40;13.70;55.70
29431;DHT22;16404;49.902;10.074;2024-03-23T06:35:24;13.60;55.90
29431;DHT22;16404;49.902;10.074;2024-03-23T06:38:09;13.60;56.50
29431;DHT22;16404;49.902;10.074;2024-03-23T06:40:53;13.40;56.70
29431;DHT22;16404;49.902;10.074;2024-03-23T06:43:37;13.40;57.00
29431;DHT22;16404;49.902;10.074;2024-03-23T06:46:21;13.30;57.00
29431;DHT22;16404;49.902;10.074;2024-03-23T06:49:06;13.30;56.80
29431;DHT22;16404;49.902;10.074;2024-03-23T06:51:51;13.40;56.90
29431;DHT22;16404;49.902;10.074;2024-03-23T06:54:35;13.30;57.10
29431;DHT22;16404;49.902;10.074;2024-03-23T06:57:19;13.30;57.30
29431;DHT22;16404;49.902;10.074;2024-03-23T07:00:04;13.20;57.30
29431;DHT22;16404;49.902;10.074;2024-03-23T07:02:49;13.30;57.20
29431;DHT22;16404;49.902;10.074;2024-03-23T07:05:33;13.20;57.30
29431;DHT22;16404;49.902;10.074;2024-03-23T07:08:18;13.10;57.50
29431;DHT22;16404;49.902;10.074;2024-03-23T07:11:06;13.00;57.70
29431;DHT22;16404;49.902;10.074;2024-03-23T07:13:51;13.00;57.70
29431;DHT22;16404;49.902;10.074;2024-03-23T07:16:36;12.90;57.80
29431;DHT22;16404;49.902;10.074;2024-03-23T07:19:20;12.80;57.90
29431;DHT22;16404;49.902;10.074;2024-03-23T07:22:04;12.80;57.90
29431;DHT22;16404;49.902;10.074;2024-03-23T07:24:49;12.80;58.00
29431;DHT22;16404;49.902;10.074;2024-03-23T07:27:33;12.70;58.10
29431;DHT22;16404;49.902;10.074;2024-03-23T07:30:18;12.70;58.10
29431;DHT22;16404;49.902;10.074;2024-03-23T07:33:02;12.60;58.20
29431;DHT22;16404;49.902;10.074;2024-03-23T07:35:46;12.60;58.30
29431;DHT22;16404;49.902;10.074;2024-03-23T07:38:30;12.50;58.10
29431;DHT22;16404;49.902;10.074;2024-03-23T07:41:15;12.60;57.80
29431;DHT22;16404;49.902;10.074;2024-03-23T07:44:03;12.50;57.90
29431;DHT22;16404;49.902;10.074;2024-03-23T07:46:48;12.30;58.10
29431;DHT22;16404;49.902;10.074;2024-03-23T07:49:32;12.30;58.20
29431;DHT22;16404;49.902;10.074;2024-03-23T07:52:16;12.30;58.10
29431;DHT22;16404;49.902;10.074;2024-03-23T07:55:00;12.40;58.30
29431;DHT22;16404;49.902;10.074;2024-03-23T07:57:45;12.30;58.10
29431;DHT22;16404;49.902;10.074;2024-03-23T08:00:29;12.40;58.00
29431;DHT22;16404;49.902;10.074;2024-03-23T08:03:13;12.30;57.90
29431;DHT22;16404;49.902;10.074;2024-03-23T08:05:57;12.20;57.90
29431;DHT22;16404;49.902;10.074;2024-03-23T08:08:42;12.00;58.10
29431;DHT22;16404;49.902;10.074;2024-03-23T08:11:27;12.00;58.40
29431;DHT22;16404;49.902;10.074;2024-03-23T08:14:16;11.90;58.60
29431;DHT22;16404;49.902;10.074;2024-03-23T08:17:01;11.80;58.60
29431;DHT22;16404;49.902;10.074;2024-03-23T08:19:45;11.80;58.50
29431;DHT22;16404;49.902;10.074;2024-03-23T08:22:29;11.90;58.40
29431;DHT22;16404;49.902;10.074;2024-03-23T08:25:13;12.00;58.30
29431;DHT22;16404;49.902;10.074;2024-03-23T08:27:58;12.00;58.20
29431;DHT22;16404;49.902;10.074;2024-03-23T08:30:43;12.10;57.90
29431;DHT22;16404;49.902;10.074;2024-03-23T08:33:27;12.20;57.60
29431;DHT22;16404;49.902;10.074;2024-03-23T08:36:11;12.30;57.40
29431;DHT22;16404;49.902;10.074;2024-03-23T08:38:57;12.40;57.30
29431;DHT22;16404;49.902;10.074;2024-03-23T08:41:42;12.40;57.10
29431;DHT22;16404;49.902;10.074;2024-03-23T08:44:29;12.40;57.00
29431;DHT22;16404;49.902;10.074;2024-03-23T08:47:14;12.40;57.00
29431;DHT22;16404;49.902;10.074;2024-03-23T08:49:58;12.40;56.90
29431;DHT22;16404;49.902;10.074;2024-03-23T08:52:42;12.40;56.90
29431;DHT22;16404;49.902;10.074;2024-03-23T08:55:27;12.40;56.80
29431;DHT22;16404;49.902;10.074;2024-03-23T08:58:11;12.40;56.70
29431;DHT22;16404;49.902;10.074;2024-03-23T09:03:48;12.30;56.40
29431;DHT22;16404;49.902;10.074;2024-03-23T09:06:32;12.40;56.20
29431;DHT22;16404;49.902;10.074;2024-03-23T09:09:17;12.30;56.10
29431;DHT22;16404;49.902;10.074;2024-03-23T09:12:02;12.40;56.00
29431;DHT22;16404;49.902;10.074;2024-03-23T09:14:46;12.40;55.90
29431;DHT22;16404;49.902;10.074;2024-03-23T09:17:30;12.50;55.70
29431;DHT22;16404;49.902;10.074;2024-03-23T09:20:15;12.50;55.60
29431;DHT22;16404;49.902;10.074;2024-03-23T09:22:59;12.60;55.50
29431;DHT22;16404;49.902;10.074;2024-03-23T09:25:43;12.60;55.30
29431;DHT22;16404;49.902;10.074;2024-03-23T09:28:27;12.60;55.20
29431;DHT22;16404;49.902;10.074;2024-03-23T09:31:12;12.70;55.00
29431;DHT22;16404;49.902;10.074;2024-03-23T09:33:59;12.70;54.90
29431;DHT22;16404;49.902;10.074;2024-03-23T09:36:43;12.60;54.70
29431;DHT22;16404;49.902;10.074;2024-03-23T09:39:28;12.60;54.50
29431;DHT22;16404;49.902;10.074;2024-03-23T09:42:12;12.60;54.30
29431;DHT22;16404;49.902;10.074;2024-03-23T09:44:57;12.70;54.40
29431;DHT22;16404;49.902;10.074;2024-03-23T09:47:43;12.70;54.20
29431;DHT22;16404;49.902;10.074;2024-03-23T09:50:28;12.80;54.00
29431;DHT22;16404;49.902;10.074;2024-03-23T09:53:13;12.80;53.80
29431;DHT22;16404;49.902;10.074;2024-03-23T09:55:57;12.80;53.70
29431;DHT22;16404;49.902;10.074;2024-03-23T09:58:42;12.80;53.70
29431;DHT22;16404;49.902;10.074;2024-03-23T10:01:26;12.80;53.80
29431;DHT22;16404;49.902;10.074;2024-03-23T10:04:10;12.80;53.60
29431;DHT22;16404;49.902;10.074;2024-03-23T10:06:56;12.90;53.40
29431;DHT22;16404;49.902;10.074;2024-03-23T10:09:54;12.90;53.30
29431;DHT22;16404;49.902;10.074;2024-03-23T10:12:43;13.10;53.30
29431;DHT22;16404;49.902;10.074;2024-03-23T10:15:28;13.20;53.10
29431;DHT22;16404;49.902;10.074;2024-03-23T10:23:50;13.70;52.40
29431;DHT22;16404;49.902;10.074;2024-03-23T10:26:35;13.80;52.00
29431;DHT22;16404;49.902;10.074;2024-03-23T10:29:20;13.80;51.70
29431;DHT22;16404;49.902;10.074;2024-03-23T10:32:08;14.00;51.40
29431;DHT22;16404;49.902;10.074;2024-03-23T10:34:53;14.10;51.20
29431;DHT22;16404;49.902;10.074;2024-03-23T10:37:37;14.10;50.90
29431;DHT22;16404;49.902;10.074;2024-03-23T10:40:21;14.10;50.50
29431;DHT22;16404;49.902;10.074;2024-03-23T10:43:06;14.00;50.20
29431;DHT22;16404;49.902;10.074;2024-03-23T10:45:50;14.00;50.30
29431;DHT22;16404;49.902;10.074;2024-03-23T10:48:34;14.00;50.20
29431;DHT22;16404;49.902;10.074;2024-03-23T10:51:19;13.90;50.10
29431;DHT22;16404;49.902;10.074;2024-03-23T10:54:06;14.00;50.00
29431;DHT22;16404;49.902;10.074;2024-03-23T10:57:13;14.00;50.00
29431;DHT22;16404;49.902;10.074;2024-03-23T10:59:55;13.90;50.00
29431;DHT22;16404;49.902;10.074;2024-03-23T11:02:40;13.90;50.00
29431;DHT22;16404;49.902;10.074;2024-03-23T11:08:09;14.00;49.90
29431;DHT22;16404;49.902;10.074;2024-03-23T11:10:53;14.10;49.90
29431;DHT22;16404;49.902;10.074;2024-03-23T11:13:37;14.20;49.60
29431;DHT22;16404;49.902;10.074;2024-03-23T11:16:22;14.20;49.40
29431;DHT22;16404;49.902;10.074;2024-03-23T11:22:10;14.20;48.70
29431;DHT22;16404;49.902;10.074;2024-03-23T11:24:55;14.30;48.70
29431;DHT22;16404;49.902;10.074;2024-03-23T11:27:39;14.30;48.50
29431;DHT22;16404;49.902;10.074;2024-03-23T11:30:24;14.40;48.30
29431;DHT22;16404;49.902;10.074;2024-03-23T11:33:09;14.40;48.30
29431;DHT22;16404;49.902;10.074;2024-03-23T11:35:53;14.30;47.80
29431;DHT22;16404;49.902;10.074;2024-03-23T11:38:37;14.20;47.90
29431;DHT22;16404;49.902;10.074;2024-03-23T11:41:22;14.40;48.00
29431;DHT22;16404;49.902;10.074;2024-03-23T11:44:19;14.50;48.00
29431;DHT22;16404;49.902;10.074;2024-03-23T11:47:07;14.50;47.80
29431;DHT22;16404;49.902;10.074;2024-03-23T11:49:52;14.50;47.70
29431;DHT22;16404;49.902;10.074;2024-03-23T11:52:36;14.40;47.70
29431;DHT22;16404;49.902;10.074;2024-03-23T11:55:20;14.40;47.70
29431;DHT22;16404;49.902;10.074;2024-03-23T11:58:05;14.40;47.60
29431;DHT22;16404;49.902;10.074;2024-03-23T12:00:59;14.30;47.40
29431;DHT22;16404;49.902;10.074;2024-03-23T12:03:43;14.20;47.30
29431;DHT22;16404;49.902;10.074;2024-03-23T12:06:28;14.30;47.20
29431;DHT22;16404;49.902;10.074;2024-03-23T12:09:12;14.30;47.10
29431;DHT22;16404;49.902;10.074;2024-03-23T12:11:57;14.40;47.00
29431;DHT22;16404;49.902;10.074;2024-03-23T12:14:42;14.60;47.10
29431;DHT22;16404;49.902;10.074;2024-03-23T12:17:26;14.60;46.80
29431;DHT22;16404;49.902;10.074;2024-03-23T12:20:10;14.70;46.80
29431;DHT22;16404;49.902;10.074;2024-03-23T12:23:04;14.80;46.60
29431;DHT22;16404;49.902;10.074;2024-03-23T12:25:48;15.00;46.50
29431;DHT22;16404;49.902;10.074;2024-03-23T12:28:33;15.10;46.30
29431;DHT22;16404;49.902;10.074;2024-03-23T12:31:17;15.10;46.10
29431;DHT22;16404;49.902;10.074;2024-03-23T12:34:01;15.10;46.00
29431;DHT22;16404;49.902;10.074;2024-03-23T12:36:47;15.20;45.80
29431;DHT22;16404;49.902;10.074;2024-03-23T12:39:31;15.10;45.10
29431;DHT22;16404;49.902;10.074;2024-03-23T12:42:16;14.90;45.70
29431;DHT22;16404;49.902;10.074;2024-03-23T12:45:00;14.80;46.20
29431;DHT22;16404;49.902;10.074;2024-03-23T12:47:44;14.60;46.60
29431;DHT22;16404;49.902;10.074;2024-03-23T12:50:28;14.40;46.90
29431;DHT22;16404;49.902;10.074;2024-03-23T12:53:13;14.10;47.20
29431;DHT22;16404;49.902;10.074;2024-03-23T12:55:57;14.00;47.60
29431;DHT22;16404;49.902;10.074;2024-03-23T12:58:41;13.80;47.90
29431;DHT22;16404;49.902;10.074;2024-03-23T13:01:25;13.70;48.20
29431;DHT22;16404;49.902;10.074;2024-03-23T13:04:10;13.60;48.30
29431;DHT22;16404;49.902;10.074;2024-03-23T13:06:55;13.40;48.60
29431;DHT22;16404;49.902;10.074;2024-03-23T13:09:39;13.20;48.90
29431;DHT22;16404;49.902;10.074;2024-03-23T13:12:23;13.00;49.20
29431;DHT22;16404;49.902;10.074;2024-03-23T13:15:07;13.00;49.50
29431;DHT22;16404;49.902;10.074;2024-03-23T13:17:51;12.80;49.80
29431;DHT22;16404;49.902;10.074;2024-03-23T13:20:38;12.80;49.80
29431;DHT22;16404;49.902;10.074;2024-03-23T13:23:22;12.70;50.10
29431;DHT22;16404;49.902;10.074;2024-03-23T13:26:06;12.70;50.20
29431;DHT22;16404;49.902;10.074;2024-03-23T13:28:51;12.70;50.10
29431;DHT22;16404;49.902;10.074;2024-03-23T13:31:36;12.70;50.30
29431;DHT22;16404;49.902;10.074;2024-03-23T13:34:20;12.60;50.40
29431;DHT22;16404;49.902;10.074;2024-03-23T13:37:04;12.60;50.40
29431;DHT22;16404;49.902;10.074;2024-03-23T13:39:51;12.70;50.30
29431;DHT22;16404;49.902;10.074;2024-03-23T13:42:35;12.70;50.10
29431;DHT22;16404;49.902;10.074;2024-03-23T13:45:19;12.60;50.20
29431;DHT22;16404;49.902;10.074;2024-03-23T13:48:03;12.50;50.30
29431;DHT22;16404;49.902;10.074;2024-03-23T13:50:47;12.40;50.20
29431;DHT22;16404;49.902;10.074;2024-03-23T13:53:40;12.50;50.20
29431;DHT22;16404;49.902;10.074;2024-03-23T13:56:24;12.50;50.00
29431;DHT22;16404;49.902;10.074;2024-03-23T13:59:09;12.50;49.80
29431;DHT22;16404;49.902;10.074;2024-03-23T14:01:53;12.50;49.70
29431;DHT22;16404;49.902;10.074;2024-03-23T14:04:37;12.50;49.50
29431;DHT22;16404;49.902;10.074;2024-03-23T14:07:22;12.50;49.40
29431;DHT22;16404;49.902;10.074;2024-03-23T14:10:06;12.60;49.00
29431;DHT22;16404;49.902;10.074;2024-03-23T14:12:51;12.60;48.80
29431;DHT22;16404;49.902;10.074;2024-03-23T14:15:35;12.60;48.30
29431;DHT22;16404;49.902;10.074;2024-03-23T14:18:21;12.70;48.30
29431;DHT22;16404;49.902;10.074;2024-03-23T14:21:08;12.70;48.10
29431;DHT22;16404;49.902;10.074;2024-03-23T14:23:52;12.70;48.00
29431;DHT22;16404;49.902;10.074;2024-03-23T14:26:37;12.80;48.00
29431;DHT22;16404;49.902;10.074;2024-03-23T14:29:23;12.90;47.80
29431;DHT22;16404;49.902;10.074;2024-03-23T14:32:07;12.90;47.60
29431;DHT22;16404;49.902;10.074;2024-03-23T14:34:51;12.90;47.50
29431;DHT22;16404;49.902;10.074;2024-03-23T14:37:38;12.90;47.40
29431;DHT22;16404;49.902;10.074;2024-03-23T14:40:22;12.90;47.40
29431;DHT22;16404;49.902;10.074;2024-03-23T14:43:06;13.00;47.40
29431;DHT22;16404;49.902;10.074;2024-03-23T14:46:10;13.00;47.30
29431;DHT22;16404;49.902;10.074;2024-03-23T14:48:55;13.00;47.10
29431;DHT22;16404;49.902;10.074;2024-03-23T14:51:39;13.00;47.00
29431;DHT22;16404;49.902;10.074;2024-03-23T14:54:23;13.00;47.00
29431;DHT22;16404;49.902;10.074;2024-03-23T14:57:08;13.00;47.00
29431;DHT22;16404;49.902;10.074;2024-03-23T14:59:55;13.10;47.00
29431;DHT22;16404;49.902;10.074;2024-03-23T15:02:40;13.10;46.80
29431;DHT22;16404;49.902;10.074;2024-03-23T15:05:24;13.10;46.70
29431;DHT22;16404;49.902;10.074;2024-03-23T15:08:08;13.10;46.50
29431;DHT22;16404;49.902;10.074;2024-03-23T15:10:52;13.10;46.20
29431;DHT22;16404;49.902;10.074;2024-03-23T15:13:37;13.10;46.10
29431;DHT22;16404;49.902;10.074;2024-03-23T15:16:21;13.00;46.00
29431;DHT22;16404;49.902;10.074;2024-03-23T15:19:05;13.00;46.20
29431;DHT22;16404;49.902;10.074;2024-03-23T15:21:50;13.00;46.30
29431;DHT22;16404;49.902;10.074;2024-03-23T15:24:35;13.00;46.60
29431;DHT22;16404;49.902;10.074;2024-03-23T15:27:20;13.00;46.70
29431;DHT22;16404;49.902;10.074;2024-03-23T15:30:04;13.00;46.70
29431;DHT22;16404;49.902;10.074;2024-03-23T15:32:49;13.00;46.60
29431;DHT22;16404;49.902;10.074;2024-03-23T15:35:33;12.90;46.60
29431;DHT22;16404;49.902;10.074;2024-03-23T15:38:17;12.90;46.80
29431;DHT22;16404;49.902;10.074;2024-03-23T15:41:02;12.90;46.90
29431;DHT22;16404;49.902;10.074;2024-03-23T15:43:48;12.80;47.00
29431;DHT22;16404;49.902;10.074;2024-03-23T15:46:32;12.80;47.00
29431;DHT22;16404;49.902;10.074;2024-03-23T15:49:16;12.80;47.00
29431;DHT22;16404;49.902;10.074;2024-03-23T15:52:00;12.80;47.00
29431;DHT22;16404;49.902;10.074;2024-03-23T15:54:44;12.80;47.10
29431;DHT22;16404;49.902;10.074;2024-03-23T15:57:28;12.80;47.10
29431;DHT22;16404;49.902;10.074;2024-03-23T16:00:13;12.80;47.20
29431;DHT22;16404;49.902;10.074;2024-03-23T16:02:57;12.70;47.20
29431;DHT22;16404;49.902;10.074;2024-03-23T18:34:08;5.00;54.50
29431;DHT22;16404;49.902;10.074;2024-03-23T18:36:53;5.00;58.20
29431;DHT22;16404;49.902;10.074;2024-03-23T18:39:37;5.60;60.10
29431;DHT22;16404;49.902;10.074;2024-03-23T18:42:22;6.30;60.60
29431;DHT22;16404;49.902;10.074;2024-03-23T18:45:06;6.80;60.30
29431;DHT22;16404;49.902;10.074;2024-03-23T18:47:51;7.30;60.00
29431;DHT22;16404;49.902;10.074;2024-03-23T18:50:36;7.70;59.60
29431;DHT22;16404;49.902;10.074;2024-03-23T18:53:21;8.00;59.30
29431;DHT22;16404;49.902;10.074;2024-03-23T18:56:06;8.20;59.10
29431;DHT22;16404;49.902;10.074;2024-03-23T18:58:53;8.30;58.80
29431;DHT22;16404;49.902;10.074;2024-03-23T19:01:38;8.50;58.70
29431;DHT22;16404;49.902;10.074;2024-03-23T19:04:23;8.60;58.50
29431;DHT22;16404;49.902;10.074;2024-03-23T19:07:07;8.60;58.10
29431;DHT22;16404;49.902;10.074;2024-03-23T19:09:52;8.70;57.80
29431;DHT22;16404;49.902;10.074;2024-03-23T19:12:36;8.70;57.60
29431;DHT22;16404;49.902;10.074;2024-03-23T19:15:21;8.80;57.50
29431;DHT22;16404;49.902;10.074;2024-03-23T19:18:06;8.80;57.20
29431;DHT22;16404;49.902;10.074;2024-03-23T19:21:00;8.80;57.10
29431;DHT22;16404;49.902;10.074;2024-03-23T19:23:44;8.80;57.10
29431;DHT22;16404;49.902;10.074;2024-03-23T19:26:29;8.90;56.90
29431;DHT22;16404;49.902;10.074;2024-03-23T19:29:14;8.90;56.80
29431;DHT22;16404;49.902;10.074;2024-03-23T19:31:59;8.90;56.80
29431;DHT22;16404;49.902;10.074;2024-03-23T19:34:43;9.00;56.60
29431;DHT22;16404;49.902;10.074;2024-03-23T19:37:27;9.00;56.30
29431;DHT22;16404;49.902;10.074;2024-03-23T19:40:13;9.00;56.30
29431;DHT22;16404;49.902;10.074;2024-03-23T19:42:58;8.90;56.10
29431;DHT22;16404;49.902;10.074;2024-03-23T19:45:42;9.00;55.90
29431;DHT22;16404;49.902;10.074;2024-03-23T19:48:27;8.90;55.50
29431;DHT22;16404;49.902;10.074;2024-03-23T19:51:12;8.90;55.90
29431;DHT22;16404;49.902;10.074;2024-03-23T19:53:56;8.90;55.60
29431;DHT22;16404;49.902;10.074;2024-03-23T19:56:41;8.80;55.90
29431;DHT22;16404;49.902;10.074;2024-03-23T19:59:25;8.70;56.10
29431;DHT22;16404;49.902;10.074;2024-03-23T20:02:10;8.60;56.50
29431;DHT22;16404;49.902;10.074;2024-03-23T20:04:55;8.60;56.70
29431;DHT22;16404;49.902;10.074;2024-03-23T20:07:39;8.50;56.90
29431;DHT22;16404;49.902;10.074;2024-03-23T20:10:24;8.50;57.30
29431;DHT22;16404;49.902;10.074;2024-03-23T20:13:08;8.40;57.60
29431;DHT22;16404;49.902;10.074;2024-03-23T20:15:54;8.40;57.80
29431;DHT22;16404;49.902;10.074;2024-03-23T20:18:38;8.40;58.00
29431;DHT22;16404;49.902;10.074;2024-03-23T20:21:23;8.30;58.10
29431;DHT22;16404;49.902;10.074;2024-03-23T20:24:08;8.30;58.20
29431;DHT22;16404;49.902;10.074;2024-03-23T20:26:52;8.30;58.40
29431;DHT22;16404;49.902;10.074;2024-03-23T20:29:37;8.30;58.60
29431;DHT22;16404;49.902;10.074;2024-03-23T20:32:21;8.30;58.70
29431;DHT22;16404;49.902;10.074;2024-03-23T20:35:06;8.40;58.70
29431;DHT22;16404;49.902;10.074;2024-03-23T20:37:51;8.40;58.70
29431;DHT22;16404;49.902;10.074;2024-03-23T20:40:35;8.40;58.70
29431;DHT22;16404;49.902;10.074;2024-03-23T20:43:20;8.40;58.80